Apodaca, NM

4:07 PM MDT on August 29, 2014 (GMT -0600)
First Arroyo | Change Station
CLOSE
Current Station
Personal Weather Station
Location: Dixon, NM
Elevation: 6037 ft
Nearby Weather Stations

Elev 6037 ft 36.20 °N, 105.90 °W | Updated 2 minutes ago

Partly Cloudy
Partly Cloudy
82.8 °F
Feels Like 81 °F
N
0.0
Wind Variable Wind from SSE

Today
High -- | Low -- °F
--% Chance of Precip.
Yesterday
High -- | Low -- °F
Precip. -- in
6:32 AM 7:35 PM
Waxing Crescent, 17% visible
Pressure 30.23 in
Visibility 10.0 miles
Clouds Scattered Clouds 8000 ft
Heat Index 81 °F
Dew Point 56 °F
Humidity 25%
Rainfall 0.00 in
Snow Depth Not available.
UV 5 out of 12
Pollen 8.30 out of 12
Air Quality Not available.
Flu Activity Not available.
METAR KLAM 292155Z AUTO 00000KT 10SM SCT080 23/04 A3023 RMK AO2 T02290038

More Conditions Fewer Conditions

Pressure 30.23 in
Visibility 10.0 miles
Clouds Scattered Clouds 8000 ft
Heat Index 81 °F
Dew Point 56 °F
Humidity 25%
Rainfall 0.00 in
Snow Depth Not available.
UV 5 out of 12
Pollen 8.30 out of 12
Air Quality Not available.
Flu Activity Not available.
METAR KLAM 292155Z AUTO 00000KT 10SM SCT080 23/04 A3023 RMK AO2 T02290038

More Conditions Fewer Conditions

10-Day Weather Forecast

Almanac

Astronomy

Aug. 29, 2014 Rise Set
Actual Time 6:32 AM MDT 7:35 PM MDT
Civil Twilight 6:06 AM MDT 8:01 PM MDT
Nautical Twilight 5:34 AM MDT 8:32 PM MDT
Astronomical Twilight 5:02 AM MDT 9:05 PM MDT
Moon 10:16 AM MDT 9:43 PM MDT
Length of Visible Light 13h 55m
Length of Day
13h 02m
Tomorrow will be 2m 11s shorter.
Waxing Crescent, 17% of the Moon is Illuminated
Today
Waxing Crescent
Sep 2
First Quarter
Sep 8
Full
Sep 15
Last Quarter
Sep 24
New

Today's Extremes

State Highs State Lows

Community

WunderPhotos

Upload Photos

1,748,354 photos uploaded!

Nearby

Snow Depth

Station Depth Elevation
Quemazon 0 in 9500 ft
Wesner Springs 0 in 11120 ft
Red River Pass #2 0 in 9850 ft
Sierra Blanca 0 in 10280 ft
Silver Creek Divide 17 in 9000 ft

Earthquake Activity

City Distance Mag. Time & Date
No recent earthquake activity has been reported nearby.
Minimum magnitude displayed is 2.5.

Coastal Water Temperatures

Place Temperature
No Stations Reporting

Nearby Weather Stations